PWSweather.com
Personal Weather Stations
Station Observations
SELKIRK1
Ontario, Selkirk, ON N0A 1P0

OntarioSelkirk, ON N0A 1P0

Lat: 42.8083652, Lon: -79.94971040000001

Elevation: 583

Station Type: Acurite 5 in 1

http://gavinsurf.com

High Low Average
Temperature 81.2°F27.3°C 62.4°F16.9°C 72.8°F22.7°C
Dew Point 77.7°F25.4°C 62.1°F16.7°C 71.2°F21.8°C
Winds 11.5 mph 18.5 kmh Calm Calm 5.0 mph SW8.0 kmh SW
Wind Gusts 13.8 mph22.2 kmh -- 6.0 mph9.7 kmh
Humidity 99% 80% 95%
Pressure 31.82 in1077.5 mb 29.26 in990.9 mb -
Precipitation 0.01 in0.3 mm - -
Hour Temp Dew Point Humidity Winds Wind Gusts Pressure Precip Precip Rate Daily Precip Total
12:00 AM 69.1°F20.6°C 68.8°F20.4°C 99% 3.5 mph N5.6 kmh N 4.6 mph7.4 kmh 31.16 in1055.2 mb - 0.00 in0.0 mm 0.00 in0.0 mm
12:10 AM 68.9°F20.5°C 68.6°F20.3°C 99% 3.5 mph N5.6 kmh N 4.6 mph7.4 kmh 31.23 in1057.6 mb - 0.00 in0.0 mm 0.00 in0.0 mm
12:15 AM 68.7°F20.4°C 68.4°F20.2°C 99% 4.6 mph N7.4 kmh N 4.6 mph7.4 kmh 31.31 in1060.3 mb - 0.00 in0.0 mm 0.00 in0.0 mm
12:20 AM 68.7°F20.4°C 68.4°F20.2°C 99% 4.6 mph N7.4 kmh N 4.6 mph7.4 kmh 31.31 in1060.3 mb - 0.00 in0.0 mm 0.00 in0.0 mm
12:25 AM 68.4°F20.2°C 68.1°F20.1°C 99% 3.5 mph N5.6 kmh N 4.6 mph7.4 kmh 31.31 in1060.3 mb - 0.00 in0.0 mm 0.00 in0.0 mm
12:30 AM 68.2°F20.1°C 67.9°F19.9°C 99% 3.5 mph N5.6 kmh N 3.5 mph5.6 kmh 31.39 in1063.0 mb - 0.00 in0.0 mm 0.00 in0.0 mm
12:35 AM 68.1°F20.1°C 67.8°F19.9°C 99% 3.5 mph N5.6 kmh N 3.5 mph5.6 kmh 31.39 in1063.0 mb - 0.00 in0.0 mm 0.00 in0.0 mm
12:40 AM 67.8°F19.9°C 67.5°F19.7°C 99% 3.5 mph N5.6 kmh N 3.5 mph5.6 kmh 31.47 in1065.7 mb - 0.00 in0.0 mm 0.00 in0.0 mm
12:45 AM 67.7°F19.8°C 67.4°F19.7°C 99% 3.5 mph N5.6 kmh N 3.5 mph5.6 kmh 31.47 in1065.7 mb - 0.00 in0.0 mm 0.00 in0.0 mm
12:50 AM 67.6°F19.8°C 67.3°F19.6°C 99% 3.5 mph N5.6 kmh N 3.5 mph5.6 kmh 31.52 in1067.4 mb - 0.00 in0.0 mm 0.00 in0.0 mm
12:55 AM 67.5°F19.7°C 67.2°F19.6°C 99% 2.3 mph N3.7 kmh N 2.3 mph3.7 kmh 31.56 in1068.7 mb - 0.00 in0.0 mm 0.00 in0.0 mm
01:00 AM 67.3°F19.6°C 67.0°F19.4°C 99% 2.3 mph N3.7 kmh N 2.3 mph3.7 kmh 31.56 in1068.7 mb - 0.00 in0.0 mm 0.00 in0.0 mm
01:10 AM 67.3°F19.6°C 67.0°F19.4°C 99% 3.5 mph N5.6 kmh N 3.5 mph5.6 kmh 31.64 in1071.5 mb - 0.00 in0.0 mm 0.00 in0.0 mm
01:15 AM 67.1°F19.5°C 66.8°F19.3°C 99% 3.5 mph N5.6 kmh N 3.5 mph5.6 kmh 31.73 in1074.5 mb - 0.00 in0.0 mm 0.00 in0.0 mm
01:20 AM 66.9°F19.4°C 66.6°F19.2°C 99% 2.3 mph N3.7 kmh N 3.5 mph5.6 kmh 31.73 in1074.5 mb - 0.00 in0.0 mm 0.00 in0.0 mm
01:25 AM 66.9°F19.4°C 66.6°F19.2°C 99% 3.5 mph N5.6 kmh N 4.6 mph7.4 kmh 31.73 in1074.5 mb - 0.00 in0.0 mm 0.00 in0.0 mm
01:30 AM 66.8°F19.3°C 66.5°F19.2°C 99% 4.6 mph N7.4 kmh N 4.6 mph7.4 kmh 31.82 in1077.5 mb - 0.00 in0.0 mm 0.00 in0.0 mm
01:35 AM 66.6°F19.2°C 66.3°F19.1°C 99% 3.5 mph N5.6 kmh N 4.6 mph7.4 kmh 31.82 in1077.5 mb - 0.00 in0.0 mm 0.00 in0.0 mm
01:40 AM 66.4°F19.1°C 66.1°F18.9°C 99% 3.5 mph N5.6 kmh N 4.6 mph7.4 kmh 31.82 in1077.5 mb - 0.00 in0.0 mm 0.00 in0.0 mm
01:45 AM 66.4°F19.1°C 66.1°F18.9°C 99% 3.5 mph N5.6 kmh N 3.5 mph5.6 kmh 31.82 in1077.5 mb - 0.00 in0.0 mm 0.00 in0.0 mm
01:50 AM 66.4°F19.1°C 66.1°F18.9°C 99% 3.5 mph N5.6 kmh N 3.5 mph5.6 kmh 31.82 in1077.5 mb - 0.00 in0.0 mm 0.00 in0.0 mm
01:55 AM 66.6°F19.2°C 66.3°F19.1°C 99% 3.5 mph N5.6 kmh N 3.5 mph5.6 kmh 31.82 in1077.5 mb - 0.00 in0.0 mm 0.00 in0.0 mm
02:00 AM 66.6°F19.2°C 66.3°F19.1°C 99% 2.3 mph N3.7 kmh N 2.3 mph3.7 kmh 31.82 in1077.5 mb - 0.00 in0.0 mm 0.00 in0.0 mm
02:10 AM 66.6°F19.2°C 66.3°F19.1°C 99% 3.5 mph N5.6 kmh N 4.6 mph7.4 kmh 31.82 in1077.5 mb - 0.00 in0.0 mm 0.00 in0.0 mm
02:15 AM 66.6°F19.2°C 66.3°F19.1°C 99% 2.3 mph N3.7 kmh N 3.5 mph5.6 kmh 31.82 in1077.5 mb - 0.00 in0.0 mm 0.00 in0.0 mm
02:20 AM 66.4°F19.1°C 66.1°F18.9°C 99% 3.5 mph N5.6 kmh N 3.5 mph5.6 kmh 31.82 in1077.5 mb - 0.00 in0.0 mm 0.00 in0.0 mm
02:25 AM 66.4°F19.1°C 66.1°F18.9°C 99% 3.5 mph N5.6 kmh N 4.6 mph7.4 kmh 31.82 in1077.5 mb - 0.00 in0.0 mm 0.00 in0.0 mm
02:30 AM 66.4°F19.1°C 66.1°F18.9°C 99% 3.5 mph N5.6 kmh N 3.5 mph5.6 kmh 31.82 in1077.5 mb - 0.00 in0.0 mm 0.00 in0.0 mm
02:35 AM 66.4°F19.1°C 66.1°F18.9°C 99% 3.5 mph N5.6 kmh N 4.6 mph7.4 kmh 31.82 in1077.5 mb - 0.00 in0.0 mm 0.00 in0.0 mm
02:40 AM 66.2°F19.0°C 65.9°F18.8°C 99% 4.6 mph N7.4 kmh N 4.6 mph7.4 kmh 31.82 in1077.5 mb - 0.00 in0.0 mm 0.00 in0.0 mm
02:45 AM 66.2°F19.0°C 65.9°F18.8°C 99% 4.6 mph N7.4 kmh N 5.8 mph9.3 kmh 31.82 in1077.5 mb - 0.00 in0.0 mm 0.00 in0.0 mm
02:50 AM 66.2°F19.0°C 65.9°F18.8°C 99% 3.5 mph N5.6 kmh N 4.6 mph7.4 kmh 31.82 in1077.5 mb - 0.00 in0.0 mm 0.00 in0.0 mm
02:55 AM 66.0°F18.9°C 65.7°F18.7°C 99% 3.5 mph N5.6 kmh N 4.6 mph7.4 kmh 31.82 in1077.5 mb - 0.00 in0.0 mm 0.00 in0.0 mm
03:00 AM 66.0°F18.9°C 65.7°F18.7°C 99% 3.5 mph N5.6 kmh N 4.6 mph7.4 kmh 31.82 in1077.5 mb - 0.00 in0.0 mm 0.00 in0.0 mm
03:10 AM 65.9°F18.8°C 65.6°F18.7°C 99% 3.5 mph N5.6 kmh N 3.5 mph5.6 kmh 31.82 in1077.5 mb - 0.00 in0.0 mm 0.00 in0.0 mm
03:15 AM 65.7°F18.7°C 65.4°F18.6°C 99% 2.3 mph N3.7 kmh N 3.5 mph5.6 kmh 31.82 in1077.5 mb - 0.00 in0.0 mm 0.00 in0.0 mm
03:20 AM 65.5°F18.6°C 65.2°F18.4°C 99% 2.3 mph N3.7 kmh N 2.3 mph3.7 kmh 31.82 in1077.5 mb - 0.00 in0.0 mm 0.00 in0.0 mm
03:25 AM 65.3°F18.5°C 65.0°F18.3°C 99% 2.3 mph N3.7 kmh N 3.5 mph5.6 kmh 31.82 in1077.5 mb - 0.00 in0.0 mm 0.00 in0.0 mm
03:30 AM 65.2°F18.4°C 64.9°F18.3°C 99% 3.5 mph NNE5.6 kmh NNE 3.5 mph5.6 kmh 31.82 in1077.5 mb - 0.00 in0.0 mm 0.00 in0.0 mm
03:35 AM 64.8°F18.2°C 64.5°F18.1°C 99% 4.6 mph NNE7.4 kmh NNE 4.6 mph7.4 kmh 31.82 in1077.5 mb - 0.00 in0.0 mm 0.00 in0.0 mm
03:40 AM 64.4°F18.0°C 64.1°F17.8°C 99% 4.6 mph N7.4 kmh N 4.6 mph7.4 kmh 31.82 in1077.5 mb - 0.00 in0.0 mm 0.00 in0.0 mm
03:45 AM 64.4°F18.0°C 64.1°F17.8°C 99% 4.6 mph N7.4 kmh N 4.6 mph7.4 kmh 31.82 in1077.5 mb - 0.00 in0.0 mm 0.00 in0.0 mm
03:50 AM 64.4°F18.0°C 64.1°F17.8°C 99% 3.5 mph N5.6 kmh N 4.6 mph7.4 kmh 31.82 in1077.5 mb - 0.00 in0.0 mm 0.00 in0.0 mm
03:55 AM 64.4°F18.0°C 64.1°F17.8°C 99% 3.5 mph N5.6 kmh N 3.5 mph5.6 kmh 31.82 in1077.5 mb - 0.00 in0.0 mm 0.00 in0.0 mm
04:00 AM 64.2°F17.9°C 63.9°F17.7°C 99% 2.3 mph N3.7 kmh N 3.5 mph5.6 kmh 31.82 in1077.5 mb - 0.00 in0.0 mm 0.00 in0.0 mm
04:10 AM 64.0°F17.8°C 63.7°F17.6°C 99% 3.5 mph N5.6 kmh N 3.5 mph5.6 kmh 31.82 in1077.5 mb - 0.00 in0.0 mm 0.00 in0.0 mm
04:15 AM 63.4°F17.4°C 63.1°F17.3°C 99% 3.5 mph N5.6 kmh N 4.6 mph7.4 kmh 31.82 in1077.5 mb - 0.00 in0.0 mm 0.00 in0.0 mm
04:20 AM 63.2°F17.3°C 62.9°F17.2°C 99% 4.6 mph N7.4 kmh N 4.6 mph7.4 kmh 31.82 in1077.5 mb - 0.00 in0.0 mm 0.00 in0.0 mm
04:25 AM 63.2°F17.3°C 62.9°F17.2°C 99% 4.6 mph N7.4 kmh N 4.6 mph7.4 kmh 31.82 in1077.5 mb - 0.00 in0.0 mm 0.00 in0.0 mm
04:30 AM 62.8°F17.1°C 62.6°F17.0°C 99% 4.6 mph N7.4 kmh N 5.8 mph9.3 kmh 31.82 in1077.5 mb - 0.00 in0.0 mm 0.00 in0.0 mm
04:35 AM 62.6°F17.0°C 62.3°F16.8°C 99% 4.6 mph N7.4 kmh N 4.6 mph7.4 kmh 31.82 in1077.5 mb - 0.00 in0.0 mm 0.00 in0.0 mm
04:40 AM 62.6°F17.0°C 62.3°F16.8°C 99% 4.6 mph N7.4 kmh N 4.6 mph7.4 kmh 31.82 in1077.5 mb - 0.00 in0.0 mm 0.00 in0.0 mm
04:45 AM 62.6°F17.0°C 62.3°F16.8°C 99% 3.5 mph N5.6 kmh N 3.5 mph5.6 kmh 31.82 in1077.5 mb - 0.00 in0.0 mm 0.00 in0.0 mm
04:50 AM 62.5°F16.9°C 62.2°F16.8°C 99% 3.5 mph N5.6 kmh N 3.5 mph5.6 kmh 31.82 in1077.5 mb - 0.00 in0.0 mm 0.00 in0.0 mm
04:55 AM 62.4°F16.9°C 62.1°F16.7°C 99% 4.6 mph N7.4 kmh N 5.8 mph9.3 kmh 31.82 in1077.5 mb - 0.00 in0.0 mm 0.00 in0.0 mm
05:00 AM 62.6°F17.0°C 62.3°F16.8°C 99% 4.6 mph N7.4 kmh N 4.6 mph7.4 kmh 31.82 in1077.5 mb - 0.00 in0.0 mm 0.00 in0.0 mm
05:10 AM 62.8°F17.1°C 62.5°F16.9°C 99% 4.6 mph N7.4 kmh N 4.6 mph7.4 kmh 31.82 in1077.5 mb - 0.00 in0.0 mm 0.00 in0.0 mm
05:15 AM 62.8°F17.1°C 62.5°F16.9°C 99% 4.6 mph N7.4 kmh N 5.8 mph9.3 kmh 31.82 in1077.5 mb - 0.00 in0.0 mm 0.00 in0.0 mm
05:20 AM 62.8°F17.1°C 62.5°F16.9°C 99% 4.6 mph N7.4 kmh N 5.8 mph9.3 kmh 31.82 in1077.5 mb - 0.00 in0.0 mm 0.00 in0.0 mm
05:25 AM 62.8°F17.1°C 62.5°F16.9°C 99% 4.6 mph NNE7.4 kmh NNE 5.8 mph9.3 kmh 31.82 in1077.5 mb - 0.00 in0.0 mm 0.00 in0.0 mm
05:30 AM 63.0°F17.2°C 62.7°F17.1°C 99% 5.8 mph N9.3 kmh N 5.8 mph9.3 kmh 31.82 in1077.5 mb - 0.00 in0.0 mm 0.00 in0.0 mm
05:35 AM 63.0°F17.2°C 62.7°F17.1°C 99% 4.6 mph NNE7.4 kmh NNE 5.8 mph9.3 kmh 31.82 in1077.5 mb - 0.00 in0.0 mm 0.00 in0.0 mm
05:40 AM 63.0°F17.2°C 62.7°F17.1°C 99% 4.6 mph N7.4 kmh N 5.8 mph9.3 kmh 31.82 in1077.5 mb - 0.00 in0.0 mm 0.00 in0.0 mm
05:45 AM 63.0°F17.2°C 62.7°F17.1°C 99% 4.6 mph N7.4 kmh N 4.6 mph7.4 kmh 31.82 in1077.5 mb - 0.00 in0.0 mm 0.00 in0.0 mm
05:50 AM 63.2°F17.3°C 62.9°F17.2°C 99% 3.5 mph N5.6 kmh N 3.5 mph5.6 kmh 31.82 in1077.5 mb - 0.00 in0.0 mm 0.00 in0.0 mm
05:55 AM 63.2°F17.3°C 62.9°F17.2°C 99% 3.5 mph N5.6 kmh N 3.5 mph5.6 kmh 31.82 in1077.5 mb - 0.00 in0.0 mm 0.00 in0.0 mm
06:00 AM 63.2°F17.3°C 62.9°F17.2°C 99% 2.3 mph N3.7 kmh N 2.3 mph3.7 kmh 31.82 in1077.5 mb - 0.00 in0.0 mm 0.00 in0.0 mm
06:10 AM 63.9°F17.7°C 63.6°F17.6°C 99% 2.3 mph N3.7 kmh N 2.3 mph3.7 kmh 31.82 in1077.5 mb - 0.00 in0.0 mm 0.00 in0.0 mm
06:15 AM 64.1°F17.8°C 63.8°F17.7°C 99% 2.3 mph N3.7 kmh N 2.3 mph3.7 kmh 31.82 in1077.5 mb - 0.00 in0.0 mm 0.00 in0.0 mm
06:20 AM 65.0°F18.3°C 64.7°F18.2°C 99% 1.2 mph N1.9 kmh N 1.2 mph1.9 kmh 31.82 in1077.5 mb - 0.00 in0.0 mm 0.00 in0.0 mm
06:25 AM 65.0°F18.3°C 64.7°F18.2°C 99% Calm Calm -- 31.82 in1077.5 mb - 0.00 in0.0 mm 0.00 in0.0 mm
06:30 AM 65.1°F18.4°C 64.8°F18.2°C 99% Calm Calm 1.2 mph1.9 kmh 31.82 in1077.5 mb - 0.00 in0.0 mm 0.00 in0.0 mm
06:35 AM 66.0°F18.9°C 65.7°F18.7°C 99% 1.2 mph N1.9 kmh N 2.3 mph3.7 kmh 31.82 in1077.5 mb - 0.00 in0.0 mm 0.00 in0.0 mm
06:40 AM 66.4°F19.1°C 66.1°F18.9°C 99% 2.3 mph NNW3.7 kmh NNW 3.5 mph5.6 kmh 31.82 in1077.5 mb - 0.00 in0.0 mm 0.01 in0.3 mm
06:45 AM 66.6°F19.2°C 66.3°F19.1°C 99% 3.5 mph N5.6 kmh N 3.5 mph5.6 kmh 31.82 in1077.5 mb - 0.01 in0.3 mm 0.01 in0.3 mm
06:50 AM 66.8°F19.3°C 66.5°F19.2°C 99% 1.2 mph N1.9 kmh N 2.3 mph3.7 kmh 31.82 in1077.5 mb - 0.01 in0.3 mm 0.01 in0.3 mm
06:55 AM 67.1°F19.5°C 66.8°F19.3°C 99% 2.3 mph N3.7 kmh N 3.5 mph5.6 kmh 31.82 in1077.5 mb - 0.01 in0.3 mm 0.01 in0.3 mm
07:00 AM 67.7°F19.8°C 67.4°F19.7°C 99% 2.3 mph N3.7 kmh N 2.3 mph3.7 kmh 31.82 in1077.5 mb - 0.01 in0.3 mm 0.01 in0.3 mm
07:10 AM 68.4°F20.2°C 67.8°F19.9°C 98% 1.2 mph N1.9 kmh N 2.3 mph3.7 kmh 31.82 in1077.5 mb - 0.01 in0.3 mm 0.01 in0.3 mm
07:15 AM 68.7°F20.4°C 68.1°F20.1°C 98% Calm Calm 1.2 mph1.9 kmh 31.82 in1077.5 mb - 0.01 in0.3 mm 0.01 in0.3 mm
07:20 AM 68.8°F20.4°C 67.6°F19.8°C 96% 1.2 mph N1.9 kmh N 1.2 mph1.9 kmh 31.82 in1077.5 mb - 0.01 in0.3 mm 0.01 in0.3 mm
07:25 AM 68.8°F20.4°C 67.9°F19.9°C 97% Calm Calm -- 31.82 in1077.5 mb - 0.01 in0.3 mm 0.01 in0.3 mm
07:30 AM 68.7°F20.4°C 67.5°F19.7°C 96% 1.2 mph N1.9 kmh N 1.2 mph1.9 kmh 31.82 in1077.5 mb - 0.01 in0.3 mm 0.01 in0.3 mm
07:35 AM 69.7°F20.9°C 68.2°F20.1°C 95% Calm Calm 2.3 mph3.7 kmh 31.82 in1077.5 mb - 0.01 in0.3 mm 0.01 in0.3 mm
07:40 AM 69.8°F21.0°C 68.0°F20.0°C 94% 2.3 mph NNW3.7 kmh NNW 2.3 mph3.7 kmh 31.82 in1077.5 mb - 0.01 in0.3 mm 0.01 in0.3 mm
07:45 AM 70.4°F21.3°C 68.6°F20.3°C 94% 2.3 mph N3.7 kmh N 2.3 mph3.7 kmh 31.82 in1077.5 mb - 0.00 in0.0 mm 0.01 in0.3 mm
07:50 AM 71.4°F21.9°C 68.6°F20.3°C 91% 1.2 mph N1.9 kmh N 2.3 mph3.7 kmh 31.82 in1077.5 mb - 0.00 in0.0 mm 0.01 in0.3 mm
07:55 AM 71.3°F21.8°C 68.6°F20.3°C 91% 2.3 mph NNW3.7 kmh NNW 2.3 mph3.7 kmh 31.82 in1077.5 mb - 0.00 in0.0 mm 0.01 in0.3 mm
08:00 AM 71.4°F21.9°C 68.9°F20.5°C 92% 3.5 mph NNW5.6 kmh NNW 4.6 mph7.4 kmh 31.82 in1077.5 mb - 0.00 in0.0 mm 0.01 in0.3 mm
08:10 AM 72.1°F22.3°C 69.4°F20.8°C 91% 3.5 mph SW5.6 kmh SW 4.6 mph7.4 kmh 31.82 in1077.5 mb - 0.00 in0.0 mm 0.01 in0.3 mm
08:15 AM 72.5°F22.5°C 69.4°F20.8°C 90% 3.5 mph WSW5.6 kmh WSW 3.5 mph5.6 kmh 31.82 in1077.5 mb - 0.00 in0.0 mm 0.01 in0.3 mm
08:20 AM 72.9°F22.7°C 69.4°F20.8°C 89% 3.5 mph SW5.6 kmh SW 4.6 mph7.4 kmh 31.82 in1077.5 mb - 0.00 in0.0 mm 0.01 in0.3 mm
08:25 AM 73.2°F22.9°C 69.4°F20.8°C 88% 3.5 mph SW5.6 kmh SW 4.6 mph7.4 kmh 31.82 in1077.5 mb - 0.00 in0.0 mm 0.01 in0.3 mm
08:30 AM 73.6°F23.1°C 70.1°F21.2°C 89% 3.5 mph SW5.6 kmh SW 4.6 mph7.4 kmh 31.82 in1077.5 mb - 0.00 in0.0 mm 0.01 in0.3 mm
08:35 AM 73.8°F23.2°C 71.0°F21.7°C 91% 4.6 mph SSW7.4 kmh SSW 6.9 mph11.1 kmh 31.82 in1077.5 mb - 0.00 in0.0 mm 0.01 in0.3 mm
08:40 AM 74.1°F23.4°C 71.3°F21.8°C 91% 4.6 mph SW7.4 kmh SW 5.8 mph9.3 kmh 31.82 in1077.5 mb - 0.00 in0.0 mm 0.01 in0.3 mm
08:45 AM 74.3°F23.5°C 71.8°F22.1°C 92% 4.6 mph SW7.4 kmh SW 5.8 mph9.3 kmh 31.82 in1077.5 mb - 0.00 in0.0 mm 0.01 in0.3 mm
08:50 AM 74.7°F23.7°C 72.2°F22.3°C 92% 3.5 mph S5.6 kmh S 5.8 mph9.3 kmh 31.82 in1077.5 mb - 0.00 in0.0 mm 0.01 in0.3 mm
08:55 AM 74.7°F23.7°C 72.5°F22.5°C 93% 4.6 mph SW7.4 kmh SW 4.6 mph7.4 kmh 31.82 in1077.5 mb - 0.00 in0.0 mm 0.01 in0.3 mm
09:00 AM 75.0°F23.9°C 72.8°F22.7°C 93% 4.6 mph SW7.4 kmh SW 6.9 mph11.1 kmh 31.82 in1077.5 mb - 0.00 in0.0 mm 0.01 in0.3 mm
09:10 AM 74.9°F23.8°C 72.7°F22.6°C 93% 4.6 mph SW7.4 kmh SW 5.8 mph9.3 kmh 31.82 in1077.5 mb - 0.00 in0.0 mm 0.01 in0.3 mm
09:15 AM 74.9°F23.8°C 72.7°F22.6°C 93% 4.6 mph SW7.4 kmh SW 4.6 mph7.4 kmh 31.82 in1077.5 mb - 0.00 in0.0 mm 0.01 in0.3 mm
09:20 AM 75.4°F24.1°C 73.2°F22.9°C 93% 4.6 mph SSW7.4 kmh SSW 6.9 mph11.1 kmh 31.82 in1077.5 mb - 0.00 in0.0 mm 0.01 in0.3 mm
09:25 AM 75.6°F24.2°C 73.1°F22.8°C 92% 4.6 mph SW7.4 kmh SW 4.6 mph7.4 kmh 31.82 in1077.5 mb - 0.00 in0.0 mm 0.01 in0.3 mm
09:30 AM 75.8°F24.3°C 73.6°F23.1°C 93% 2.3 mph SSE3.7 kmh SSE 2.3 mph3.7 kmh 31.82 in1077.5 mb - 0.00 in0.0 mm 0.01 in0.3 mm
09:35 AM 75.8°F24.3°C 73.6°F23.1°C 93% 2.3 mph SSE3.7 kmh SSE 2.3 mph3.7 kmh 31.82 in1077.5 mb - 0.00 in0.0 mm 0.01 in0.3 mm
09:40 AM 75.8°F24.3°C 73.6°F23.1°C 93% 2.3 mph SSE3.7 kmh SSE 2.3 mph3.7 kmh 31.82 in1077.5 mb - 0.00 in0.0 mm 0.01 in0.3 mm
09:45 AM 77.7°F25.4°C 74.5°F23.6°C 90% 4.6 mph WSW7.4 kmh WSW 8.1 mph13.0 kmh 31.82 in1077.5 mb - 0.00 in0.0 mm 0.01 in0.3 mm
09:50 AM 77.6°F25.3°C 74.5°F23.6°C 90% 4.6 mph WSW7.4 kmh WSW 8.1 mph13.0 kmh 31.82 in1077.5 mb - 0.00 in0.0 mm 0.01 in0.3 mm
09:55 AM 77.4°F25.2°C 74.5°F23.6°C 91% 5.8 mph SW9.3 kmh SW 6.9 mph11.1 kmh 31.82 in1077.5 mb - 0.00 in0.0 mm 0.01 in0.3 mm
10:00 AM 77.3°F25.2°C 74.5°F23.6°C 91% 4.6 mph SW7.4 kmh SW 5.8 mph9.3 kmh 31.82 in1077.5 mb - 0.00 in0.0 mm 0.01 in0.3 mm
10:10 AM 77.9°F25.5°C 74.7°F23.7°C 90% 3.5 mph SW5.6 kmh SW 4.6 mph7.4 kmh 31.82 in1077.5 mb - 0.00 in0.0 mm 0.01 in0.3 mm
10:15 AM 77.9°F25.5°C 74.7°F23.7°C 90% 3.5 mph SW5.6 kmh SW 4.6 mph7.4 kmh 31.82 in1077.5 mb - 0.00 in0.0 mm 0.01 in0.3 mm
10:20 AM 78.5°F25.8°C 75.0°F23.9°C 89% 4.6 mph SSW7.4 kmh SSW 6.9 mph11.1 kmh 31.82 in1077.5 mb - 0.00 in0.0 mm 0.01 in0.3 mm
10:25 AM 78.5°F25.8°C 75.0°F23.9°C 89% 4.6 mph SW7.4 kmh SW 5.8 mph9.3 kmh 31.82 in1077.5 mb - 0.00 in0.0 mm 0.01 in0.3 mm
10:30 AM 78.5°F25.8°C 75.3°F24.1°C 90% 4.6 mph S7.4 kmh S 8.1 mph13.0 kmh 31.82 in1077.5 mb - 0.00 in0.0 mm 0.01 in0.3 mm
10:35 AM 78.5°F25.8°C 75.6°F24.2°C 91% 4.6 mph SW7.4 kmh SW 5.8 mph9.3 kmh 31.82 in1077.5 mb - 0.00 in0.0 mm 0.01 in0.3 mm
10:40 AM 78.5°F25.8°C 75.6°F24.2°C 91% 6.9 mph SW11.1 kmh SW 8.1 mph13.0 kmh 31.82 in1077.5 mb - 0.00 in0.0 mm 0.01 in0.3 mm
10:45 AM 78.3°F25.7°C 75.8°F24.3°C 92% 6.9 mph SSW11.1 kmh SSW 8.1 mph13.0 kmh 31.82 in1077.5 mb - 0.00 in0.0 mm 0.01 in0.3 mm
10:50 AM 78.3°F25.7°C 75.4°F24.1°C 91% 8.1 mph SW13.0 kmh SW 9.2 mph14.8 kmh 31.82 in1077.5 mb - 0.00 in0.0 mm 0.01 in0.3 mm
10:55 AM 78.5°F25.8°C 76.0°F24.4°C 92% 8.1 mph SW13.0 kmh SW 9.2 mph14.8 kmh 31.82 in1077.5 mb - 0.00 in0.0 mm 0.01 in0.3 mm
11:00 AM 78.5°F25.8°C 76.0°F24.4°C 92% 8.1 mph SW13.0 kmh SW 9.2 mph14.8 kmh 31.82 in1077.5 mb - 0.00 in0.0 mm 0.01 in0.3 mm
11:10 AM 78.5°F25.8°C 76.0°F24.4°C 92% 8.1 mph SSW13.0 kmh SSW 10.4 mph16.7 kmh 31.82 in1077.5 mb - 0.00 in0.0 mm 0.01 in0.3 mm
11:15 AM 78.8°F26.0°C 76.3°F24.6°C 92% 8.1 mph SW13.0 kmh SW 8.1 mph13.0 kmh 31.82 in1077.5 mb - 0.00 in0.0 mm 0.01 in0.3 mm
11:20 AM 78.8°F26.0°C 76.6°F24.8°C 93% 8.1 mph SW13.0 kmh SW 9.2 mph14.8 kmh 31.82 in1077.5 mb - 0.00 in0.0 mm 0.01 in0.3 mm
11:25 AM 79.0°F26.1°C 76.8°F24.9°C 93% 9.2 mph SW14.8 kmh SW 9.2 mph14.8 kmh 31.82 in1077.5 mb - 0.00 in0.0 mm 0.01 in0.3 mm
11:30 AM 79.0°F26.1°C 76.8°F24.9°C 93% 9.2 mph SW14.8 kmh SW 10.4 mph16.7 kmh 31.82 in1077.5 mb - 0.00 in0.0 mm 0.01 in0.3 mm
11:35 AM 79.0°F26.1°C 76.8°F24.9°C 93% 9.2 mph SW14.8 kmh SW 10.4 mph16.7 kmh 31.82 in1077.5 mb - 0.00 in0.0 mm 0.01 in0.3 mm
11:40 AM 79.3°F26.3°C 77.1°F25.1°C 93% 9.2 mph SW14.8 kmh SW 10.4 mph16.7 kmh 31.81 in1077.2 mb - 0.00 in0.0 mm 0.01 in0.3 mm
11:45 AM 79.2°F26.2°C 77.0°F25.0°C 93% 9.2 mph SW14.8 kmh SW 10.4 mph16.7 kmh 31.81 in1077.2 mb - 0.00 in0.0 mm 0.01 in0.3 mm
11:50 AM 79.4°F26.3°C 76.9°F24.9°C 92% 9.2 mph SW14.8 kmh SW 11.5 mph18.5 kmh 31.75 in1075.2 mb - 0.00 in0.0 mm 0.01 in0.3 mm
11:55 AM 79.4°F26.3°C 76.9°F24.9°C 92% 10.4 mph WSW16.7 kmh WSW 10.4 mph16.7 kmh 31.58 in1069.4 mb - 0.00 in0.0 mm 0.01 in0.3 mm
12:00 PM 79.4°F26.3°C 76.9°F24.9°C 92% 9.2 mph SW14.8 kmh SW 10.4 mph16.7 kmh 31.58 in1069.4 mb - 0.00 in0.0 mm 0.01 in0.3 mm
12:10 PM 79.5°F26.4°C 77.0°F25.0°C 92% 10.4 mph SW16.7 kmh SW 11.5 mph18.5 kmh 31.54 in1068.1 mb - 0.00 in0.0 mm 0.01 in0.3 mm
12:15 PM 79.6°F26.4°C 76.7°F24.8°C 91% 10.4 mph SW16.7 kmh SW 11.5 mph18.5 kmh 31.56 in1068.7 mb - 0.00 in0.0 mm 0.01 in0.3 mm
12:20 PM 79.5°F26.4°C 77.0°F25.0°C 92% 10.4 mph SW16.7 kmh SW 10.4 mph16.7 kmh 31.56 in1068.7 mb - 0.00 in0.0 mm 0.01 in0.3 mm
12:25 PM 79.6°F26.4°C 77.1°F25.1°C 92% 9.2 mph SW14.8 kmh SW 10.4 mph16.7 kmh 31.56 in1068.7 mb - 0.00 in0.0 mm 0.01 in0.3 mm
12:30 PM 79.7°F26.5°C 77.1°F25.1°C 92% 10.4 mph SW16.7 kmh SW 10.4 mph16.7 kmh 31.52 in1067.4 mb - 0.00 in0.0 mm 0.01 in0.3 mm
12:35 PM 79.7°F26.5°C 77.1°F25.1°C 92% 10.4 mph WSW16.7 kmh WSW 10.4 mph16.7 kmh 31.52 in1067.4 mb - 0.00 in0.0 mm 0.01 in0.3 mm
12:40 PM 79.7°F26.5°C 76.8°F24.9°C 91% 10.4 mph SW16.7 kmh SW 10.4 mph16.7 kmh 31.46 in1065.4 mb - 0.00 in0.0 mm 0.01 in0.3 mm
12:45 PM 79.7°F26.5°C 77.2°F25.1°C 92% 10.4 mph WSW16.7 kmh WSW 11.5 mph18.5 kmh 31.46 in1065.4 mb - 0.00 in0.0 mm 0.01 in0.3 mm
12:50 PM 79.9°F26.6°C 77.0°F25.0°C 91% 10.4 mph SW16.7 kmh SW 10.4 mph16.7 kmh 31.39 in1063.0 mb - 0.00 in0.0 mm 0.01 in0.3 mm
12:55 PM 79.7°F26.5°C 77.1°F25.1°C 92% 10.4 mph SW16.7 kmh SW 11.5 mph18.5 kmh 31.38 in1062.6 mb - 0.00 in0.0 mm 0.01 in0.3 mm
01:00 PM 79.7°F26.5°C 77.1°F25.1°C 92% 10.4 mph SW16.7 kmh SW 10.4 mph16.7 kmh 31.38 in1062.6 mb - 0.00 in0.0 mm 0.01 in0.3 mm
01:10 PM 79.9°F26.6°C 77.0°F25.0°C 91% 10.4 mph WSW16.7 kmh WSW 10.4 mph16.7 kmh 31.16 in1055.2 mb - 0.00 in0.0 mm 0.01 in0.3 mm
01:15 PM 79.9°F26.6°C 77.3°F25.2°C 92% 10.4 mph SW16.7 kmh SW 10.4 mph16.7 kmh 31.00 in1049.8 mb - 0.00 in0.0 mm 0.01 in0.3 mm
01:20 PM 79.9°F26.6°C 77.0°F25.0°C 91% 10.4 mph SW16.7 kmh SW 11.5 mph18.5 kmh 31.00 in1049.8 mb - 0.00 in0.0 mm 0.01 in0.3 mm
01:25 PM 80.1°F26.7°C 77.2°F25.1°C 91% 10.4 mph SSW16.7 kmh SSW 10.4 mph16.7 kmh 30.98 in1049.1 mb - 0.00 in0.0 mm 0.01 in0.3 mm
01:30 PM 80.3°F26.8°C 77.7°F25.4°C 92% 10.4 mph WSW16.7 kmh WSW 11.5 mph18.5 kmh 30.86 in1045.0 mb - 0.00 in0.0 mm 0.01 in0.3 mm
01:35 PM 80.3°F26.8°C 77.4°F25.2°C 91% 11.5 mph SSW18.5 kmh SSW 11.5 mph18.5 kmh 30.86 in1045.0 mb - 0.00 in0.0 mm 0.01 in0.3 mm
01:40 PM 80.1°F26.7°C 77.2°F25.1°C 91% 10.4 mph SW16.7 kmh SW 12.7 mph20.4 kmh 30.75 in1041.3 mb - 0.00 in0.0 mm 0.01 in0.3 mm
01:45 PM 80.1°F26.7°C 77.2°F25.1°C 91% 11.5 mph SW18.5 kmh SW 11.5 mph18.5 kmh 30.75 in1041.3 mb - 0.00 in0.0 mm 0.01 in0.3 mm
01:50 PM 80.1°F26.7°C 76.5°F24.7°C 89% 11.5 mph SW18.5 kmh SW 11.5 mph18.5 kmh 30.68 in1038.9 mb - 0.00 in0.0 mm 0.01 in0.3 mm
01:55 PM 80.1°F26.7°C 76.9°F24.9°C 90% 11.5 mph SSW18.5 kmh SSW 11.5 mph18.5 kmh 30.61 in1036.6 mb - 0.00 in0.0 mm 0.01 in0.3 mm
02:00 PM 80.0°F26.7°C 76.8°F24.9°C 90% 11.5 mph SW18.5 kmh SW 12.7 mph20.4 kmh 30.61 in1036.6 mb - 0.00 in0.0 mm 0.01 in0.3 mm
02:10 PM 80.1°F26.7°C 77.2°F25.1°C 91% 9.2 mph SSW14.8 kmh SSW 11.5 mph18.5 kmh 30.55 in1034.5 mb - 0.00 in0.0 mm 0.01 in0.3 mm
02:15 PM 80.1°F26.7°C 76.9°F24.9°C 90% 10.4 mph SW16.7 kmh SW 10.4 mph16.7 kmh 30.49 in1032.5 mb - 0.00 in0.0 mm 0.01 in0.3 mm
02:20 PM 80.3°F26.8°C 76.7°F24.8°C 89% 9.2 mph SW14.8 kmh SW 10.4 mph16.7 kmh 30.49 in1032.5 mb - 0.00 in0.0 mm 0.01 in0.3 mm
02:25 PM 80.3°F26.8°C 76.4°F24.7°C 88% 10.4 mph SW16.7 kmh SW 11.5 mph18.5 kmh 30.49 in1032.5 mb - 0.00 in0.0 mm 0.01 in0.3 mm
02:30 PM 80.3°F26.8°C 76.4°F24.7°C 88% 10.4 mph WSW16.7 kmh WSW 11.5 mph18.5 kmh 30.40 in1029.5 mb - 0.00 in0.0 mm 0.01 in0.3 mm
02:35 PM 80.1°F26.7°C 76.2°F24.6°C 88% 11.5 mph SSW18.5 kmh SSW 12.7 mph20.4 kmh 30.40 in1029.5 mb - 0.00 in0.0 mm 0.01 in0.3 mm
02:40 PM 80.1°F26.7°C 75.5°F24.2°C 86% 10.4 mph SSW16.7 kmh SSW 11.5 mph18.5 kmh 30.33 in1027.1 mb - 0.00 in0.0 mm 0.01 in0.3 mm
02:45 PM 79.9°F26.6°C 74.6°F23.7°C 84% 9.2 mph SSW14.8 kmh SSW 10.4 mph16.7 kmh 30.33 in1027.1 mb - 0.00 in0.0 mm 0.01 in0.3 mm
02:50 PM 80.3°F26.8°C 74.3°F23.5°C 82% 8.1 mph SW13.0 kmh SW 10.4 mph16.7 kmh 30.26 in1024.7 mb - 0.00 in0.0 mm 0.01 in0.3 mm
02:55 PM 80.7°F27.1°C 74.7°F23.7°C 82% 6.9 mph SW11.1 kmh SW 9.2 mph14.8 kmh 30.26 in1024.7 mb - 0.00 in0.0 mm 0.01 in0.3 mm
03:00 PM 81.2°F27.3°C 74.4°F23.6°C 80% 9.2 mph SW14.8 kmh SW 10.4 mph16.7 kmh 30.26 in1024.7 mb - 0.00 in0.0 mm 0.01 in0.3 mm
03:10 PM 80.4°F26.9°C 74.7°F23.7°C 83% 9.2 mph SW14.8 kmh SW 10.4 mph16.7 kmh 30.23 in1023.7 mb - 0.00 in0.0 mm 0.01 in0.3 mm
03:15 PM 80.7°F27.1°C 74.3°F23.5°C 81% 8.1 mph SW13.0 kmh SW 10.4 mph16.7 kmh 30.19 in1022.4 mb - 0.00 in0.0 mm 0.01 in0.3 mm
03:20 PM 81.0°F27.2°C 74.6°F23.7°C 81% 9.2 mph SW14.8 kmh SW 10.4 mph16.7 kmh 30.19 in1022.4 mb - 0.00 in0.0 mm 0.01 in0.3 mm
03:25 PM 80.3°F26.8°C 74.3°F23.5°C 82% 11.5 mph SSW18.5 kmh SSW 12.7 mph20.4 kmh 30.19 in1022.4 mb - 0.00 in0.0 mm 0.01 in0.3 mm
03:30 PM 80.3°F26.8°C 75.0°F23.9°C 84% 10.4 mph SW16.7 kmh SW 11.5 mph18.5 kmh 30.26 in1024.7 mb - 0.00 in0.0 mm 0.01 in0.3 mm
03:35 PM 80.3°F26.8°C 75.4°F24.1°C 85% 9.2 mph SW14.8 kmh SW 11.5 mph18.5 kmh 30.26 in1024.7 mb - 0.00 in0.0 mm 0.01 in0.3 mm
03:40 PM 80.4°F26.9°C 75.5°F24.2°C 85% 8.1 mph SW13.0 kmh SW 9.2 mph14.8 kmh 30.28 in1025.4 mb - 0.00 in0.0 mm 0.01 in0.3 mm
03:45 PM 80.1°F26.7°C 75.9°F24.4°C 87% 10.4 mph SW16.7 kmh SW 13.8 mph22.2 kmh 30.28 in1025.4 mb - 0.00 in0.0 mm 0.01 in0.3 mm
03:50 PM 78.7°F25.9°C 75.1°F23.9°C 89% 9.2 mph SW14.8 kmh SW 10.4 mph16.7 kmh 30.18 in1022.0 mb - 0.00 in0.0 mm 0.01 in0.3 mm
03:55 PM 78.3°F25.7°C 75.1°F23.9°C 90% 10.4 mph WSW16.7 kmh WSW 13.8 mph22.2 kmh 30.14 in1020.7 mb - 0.00 in0.0 mm 0.01 in0.3 mm
04:00 PM 77.9°F25.5°C 74.7°F23.7°C 90% 10.4 mph SSW16.7 kmh SSW 12.7 mph20.4 kmh 30.14 in1020.7 mb - 0.00 in0.0 mm 0.01 in0.3 mm
04:10 PM 77.7°F25.4°C 74.5°F23.6°C 90% 9.2 mph SW14.8 kmh SW 11.5 mph18.5 kmh 30.10 in1019.3 mb - 0.00 in0.0 mm 0.01 in0.3 mm
04:15 PM 77.7°F25.4°C 74.5°F23.6°C 90% 9.2 mph SW14.8 kmh SW 9.2 mph14.8 kmh 30.05 in1017.6 mb - 0.00 in0.0 mm 0.01 in0.3 mm
04:20 PM 78.1°F25.6°C 75.2°F24.0°C 91% 10.4 mph SSW16.7 kmh SSW 11.5 mph18.5 kmh 30.05 in1017.6 mb - 0.00 in0.0 mm 0.01 in0.3 mm
04:25 PM 77.7°F25.4°C 75.2°F24.0°C 92% 8.1 mph SSW13.0 kmh SSW 8.1 mph13.0 kmh 30.05 in1017.6 mb - 0.00 in0.0 mm 0.01 in0.3 mm
04:30 PM 77.6°F25.3°C 75.1°F23.9°C 92% 5.8 mph SSW9.3 kmh SSW 9.2 mph14.8 kmh 29.94 in1013.9 mb - 0.00 in0.0 mm 0.01 in0.3 mm
04:35 PM 77.6°F25.3°C 75.1°F23.9°C 92% 9.2 mph SW14.8 kmh SW 10.4 mph16.7 kmh 29.94 in1013.9 mb - 0.00 in0.0 mm 0.01 in0.3 mm
04:40 PM 77.4°F25.2°C 75.2°F24.0°C 93% 6.9 mph SW11.1 kmh SW 6.9 mph11.1 kmh 29.84 in1010.5 mb - 0.00 in0.0 mm 0.01 in0.3 mm
04:45 PM 77.0°F25.0°C 75.1°F23.9°C 94% 6.9 mph SSW11.1 kmh SSW 8.1 mph13.0 kmh 29.84 in1010.5 mb - 0.00 in0.0 mm 0.01 in0.3 mm
04:50 PM 77.0°F25.0°C 74.8°F23.8°C 93% 10.4 mph SW16.7 kmh SW 12.7 mph20.4 kmh 29.75 in1007.5 mb - 0.00 in0.0 mm 0.01 in0.3 mm
04:55 PM 77.0°F25.0°C 75.1°F23.9°C 94% 10.4 mph SW16.7 kmh SW 10.4 mph16.7 kmh 29.75 in1007.5 mb - 0.00 in0.0 mm 0.01 in0.3 mm
05:00 PM 76.8°F24.9°C 74.6°F23.7°C 93% 5.8 mph S9.3 kmh S 6.9 mph11.1 kmh 29.75 in1007.5 mb - 0.00 in0.0 mm 0.01 in0.3 mm
05:10 PM 76.8°F24.9°C 74.9°F23.8°C 94% 9.2 mph S14.8 kmh S 9.2 mph14.8 kmh 29.66 in1004.4 mb - 0.00 in0.0 mm 0.01 in0.3 mm
05:15 PM 76.8°F24.9°C 74.6°F23.7°C 93% 8.1 mph SSW13.0 kmh SSW 9.2 mph14.8 kmh 29.61 in1002.7 mb - 0.00 in0.0 mm 0.01 in0.3 mm
05:20 PM 76.8°F24.9°C 74.6°F23.7°C 93% 5.8 mph SW9.3 kmh SW 5.8 mph9.3 kmh 29.61 in1002.7 mb - 0.00 in0.0 mm 0.01 in0.3 mm
05:25 PM 76.8°F24.9°C 74.9°F23.8°C 94% 5.8 mph SSE9.3 kmh SSE 6.9 mph11.1 kmh 29.61 in1002.7 mb - 0.00 in0.0 mm 0.01 in0.3 mm
05:30 PM 76.8°F24.9°C 75.2°F24.0°C 95% 5.8 mph SSE9.3 kmh SSE 6.9 mph11.1 kmh 29.56 in1001.0 mb - 0.00 in0.0 mm 0.01 in0.3 mm
05:35 PM 76.7°F24.8°C 75.1°F23.9°C 95% 4.6 mph SW7.4 kmh SW 6.9 mph11.1 kmh 29.56 in1001.0 mb - 0.00 in0.0 mm 0.01 in0.3 mm
05:40 PM 76.7°F24.8°C 75.1°F23.9°C 95% 4.6 mph S7.4 kmh S 5.8 mph9.3 kmh 29.51 in999.3 mb - 0.00 in0.0 mm 0.01 in0.3 mm
05:45 PM 76.7°F24.8°C 75.1°F23.9°C 95% 5.8 mph S9.3 kmh S 6.9 mph11.1 kmh 29.51 in999.3 mb - 0.00 in0.0 mm 0.01 in0.3 mm
05:50 PM 76.7°F24.8°C 74.8°F23.8°C 94% 3.5 mph WSW5.6 kmh WSW 5.8 mph9.3 kmh 29.48 in998.3 mb - 0.00 in0.0 mm 0.01 in0.3 mm
05:55 PM 76.7°F24.8°C 74.8°F23.8°C 94% 4.6 mph WNW7.4 kmh WNW 5.8 mph9.3 kmh 29.48 in998.3 mb - 0.00 in0.0 mm 0.01 in0.3 mm
06:00 PM 76.8°F24.9°C 74.9°F23.8°C 94% 4.6 mph N7.4 kmh N 5.8 mph9.3 kmh 29.48 in998.3 mb - 0.00 in0.0 mm 0.01 in0.3 mm
06:10 PM 77.0°F25.0°C 74.5°F23.6°C 92% 5.8 mph WSW9.3 kmh WSW 9.2 mph14.8 kmh 29.43 in996.6 mb - 0.00 in0.0 mm 0.01 in0.3 mm
06:15 PM 77.2°F25.1°C 75.0°F23.9°C 93% 3.5 mph S5.6 kmh S 8.1 mph13.0 kmh 29.36 in994.2 mb - 0.00 in0.0 mm 0.01 in0.3 mm
06:20 PM 77.2°F25.1°C 74.7°F23.7°C 92% 3.5 mph SSE5.6 kmh SSE 5.8 mph9.3 kmh 29.36 in994.2 mb - 0.00 in0.0 mm 0.01 in0.3 mm
06:25 PM 77.2°F25.1°C 74.7°F23.7°C 92% 3.5 mph NW5.6 kmh NW 4.6 mph7.4 kmh 29.36 in994.2 mb - 0.00 in0.0 mm 0.01 in0.3 mm
06:30 PM 76.9°F24.9°C 74.7°F23.7°C 93% 3.5 mph S5.6 kmh S 5.8 mph9.3 kmh 29.33 in993.2 mb - 0.00 in0.0 mm 0.01 in0.3 mm
06:35 PM 76.6°F24.8°C 74.7°F23.7°C 94% 3.5 mph W5.6 kmh W 5.8 mph9.3 kmh 29.33 in993.2 mb - 0.00 in0.0 mm 0.01 in0.3 mm
06:40 PM 76.5°F24.7°C 74.9°F23.8°C 95% 3.5 mph WSW5.6 kmh WSW 4.6 mph7.4 kmh 29.31 in992.6 mb - 0.00 in0.0 mm 0.01 in0.3 mm
06:45 PM 76.1°F24.5°C 74.5°F23.6°C 95% 3.5 mph W5.6 kmh W 4.6 mph7.4 kmh 29.31 in992.6 mb - 0.00 in0.0 mm 0.01 in0.3 mm
06:50 PM 76.1°F24.5°C 74.9°F23.8°C 96% 2.3 mph SSW3.7 kmh SSW 5.8 mph9.3 kmh 29.30 in992.2 mb - 0.00 in0.0 mm 0.01 in0.3 mm
06:55 PM 76.1°F24.5°C 74.9°F23.8°C 96% 2.3 mph SW3.7 kmh SW 3.5 mph5.6 kmh 29.29 in991.9 mb - 0.00 in0.0 mm 0.01 in0.3 mm
07:00 PM 75.9°F24.4°C 75.0°F23.9°C 97% 4.6 mph WSW7.4 kmh WSW 6.9 mph11.1 kmh 29.29 in991.9 mb - 0.00 in0.0 mm 0.01 in0.3 mm
07:10 PM 75.8°F24.3°C 74.9°F23.8°C 97% 3.5 mph S5.6 kmh S 5.8 mph9.3 kmh 29.26 in990.9 mb - 0.00 in0.0 mm 0.01 in0.3 mm
07:15 PM 75.8°F24.3°C 74.9°F23.8°C 97% 3.5 mph SW5.6 kmh SW 4.6 mph7.4 kmh 29.33 in993.2 mb - 0.00 in0.0 mm 0.01 in0.3 mm
07:20 PM 75.6°F24.2°C 74.7°F23.7°C 97% 4.6 mph WSW7.4 kmh WSW 5.8 mph9.3 kmh 29.33 in993.2 mb - 0.00 in0.0 mm 0.01 in0.3 mm
07:25 PM 75.6°F24.2°C 74.7°F23.7°C 97% 3.5 mph E5.6 kmh E 5.8 mph9.3 kmh 29.34 in993.6 mb - 0.00 in0.0 mm 0.01 in0.3 mm
07:30 PM 75.6°F24.2°C 74.7°F23.7°C 97% 2.3 mph SW3.7 kmh SW 4.6 mph7.4 kmh 29.36 in994.2 mb - 0.00 in0.0 mm 0.01 in0.3 mm
07:35 PM 75.6°F24.2°C 74.7°F23.7°C 97% 3.5 mph NNE5.6 kmh NNE 3.5 mph5.6 kmh 29.36 in994.2 mb - 0.00 in0.0 mm 0.01 in0.3 mm
07:40 PM 75.4°F24.1°C 74.5°F23.6°C 97% 2.3 mph S3.7 kmh S 3.5 mph5.6 kmh 29.43 in996.6 mb - 0.00 in0.0 mm 0.01 in0.3 mm
07:45 PM 75.4°F24.1°C 74.5°F23.6°C 97% 3.5 mph S5.6 kmh S 5.8 mph9.3 kmh 29.43 in996.6 mb - 0.00 in0.0 mm 0.01 in0.3 mm
07:50 PM 75.4°F24.1°C 74.5°F23.6°C 97% 3.5 mph SE5.6 kmh SE 5.8 mph9.3 kmh 29.45 in997.3 mb - 0.00 in0.0 mm 0.01 in0.3 mm
07:55 PM 75.4°F24.1°C 74.5°F23.6°C 97% 2.3 mph WNW3.7 kmh WNW 4.6 mph7.4 kmh 29.46 in997.6 mb - 0.00 in0.0 mm 0.01 in0.3 mm
08:00 PM 75.4°F24.1°C 74.5°F23.6°C 97% 2.3 mph N3.7 kmh N 4.6 mph7.4 kmh 29.46 in997.6 mb - 0.00 in0.0 mm 0.01 in0.3 mm
08:10 PM 75.0°F23.9°C 74.1°F23.4°C 97% 3.5 mph N5.6 kmh N 3.5 mph5.6 kmh 29.47 in998.0 mb - 0.00 in0.0 mm 0.01 in0.3 mm
08:15 PM 74.9°F23.8°C 74.0°F23.3°C 97% 2.3 mph N3.7 kmh N 3.5 mph5.6 kmh 29.50 in999.0 mb - 0.00 in0.0 mm 0.01 in0.3 mm
08:20 PM 74.9°F23.8°C 74.0°F23.3°C 97% Calm Calm 1.2 mph1.9 kmh 29.50 in999.0 mb - 0.00 in0.0 mm 0.01 in0.3 mm
08:25 PM 74.7°F23.7°C 73.8°F23.2°C 97% 2.3 mph N3.7 kmh N 2.3 mph3.7 kmh 29.50 in999.0 mb - 0.00 in0.0 mm 0.01 in0.3 mm
08:30 PM 74.3°F23.5°C 73.4°F23.0°C 97% 2.3 mph NNW3.7 kmh NNW 3.5 mph5.6 kmh 29.52 in999.7 mb - 0.00 in0.0 mm 0.01 in0.3 mm
08:35 PM 74.1°F23.4°C 73.2°F22.9°C 97% 2.3 mph W3.7 kmh W 2.3 mph3.7 kmh 29.52 in999.7 mb - 0.00 in0.0 mm 0.01 in0.3 mm
08:40 PM 74.0°F23.3°C 73.1°F22.8°C 97% 1.2 mph NNW1.9 kmh NNW 2.3 mph3.7 kmh 29.57 in1001.4 mb - 0.00 in0.0 mm 0.01 in0.3 mm
08:45 PM 73.8°F23.2°C 72.9°F22.7°C 97% 1.2 mph NNE1.9 kmh NNE 1.2 mph1.9 kmh 29.57 in1001.4 mb - 0.00 in0.0 mm 0.01 in0.3 mm
08:50 PM 73.7°F23.2°C 72.8°F22.7°C 97% 1.2 mph NNW1.9 kmh NNW 1.2 mph1.9 kmh 29.59 in1002.0 mb - 0.00 in0.0 mm 0.01 in0.3 mm
08:55 PM 73.4°F23.0°C 72.5°F22.5°C 97% 1.2 mph NW1.9 kmh NW 2.3 mph3.7 kmh 29.61 in1002.7 mb - 0.00 in0.0 mm 0.01 in0.3 mm
09:00 PM 73.2°F22.9°C 72.3°F22.4°C 97% Calm Calm -- 29.61 in1002.7 mb - 0.00 in0.0 mm 0.01 in0.3 mm
09:10 PM 72.9°F22.7°C 72.3°F22.4°C 98% Calm Calm 1.2 mph1.9 kmh 29.65 in1004.1 mb - 0.00 in0.0 mm 0.01 in0.3 mm
09:15 PM 72.7°F22.6°C 72.4°F22.4°C 99% 1.2 mph NNW1.9 kmh NNW 1.2 mph1.9 kmh 29.68 in1005.1 mb - 0.00 in0.0 mm 0.01 in0.3 mm
09:20 PM 72.5°F22.5°C 72.2°F22.3°C 99% 1.2 mph NNW1.9 kmh NNW 2.3 mph3.7 kmh 29.68 in1005.1 mb - 0.00 in0.0 mm 0.01 in0.3 mm
09:25 PM 72.5°F22.5°C 72.2°F22.3°C 99% 2.3 mph NNW3.7 kmh NNW 2.3 mph3.7 kmh 29.68 in1005.1 mb - 0.00 in0.0 mm 0.01 in0.3 mm
09:30 PM 72.3°F22.4°C 72.0°F22.2°C 99% 2.3 mph N3.7 kmh N 2.3 mph3.7 kmh 29.71 in1006.1 mb - 0.00 in0.0 mm 0.01 in0.3 mm
09:35 PM 72.2°F22.3°C 71.9°F22.2°C 99% 2.3 mph N3.7 kmh N 2.3 mph3.7 kmh 29.71 in1006.1 mb - 0.00 in0.0 mm 0.01 in0.3 mm
09:40 PM 72.0°F22.2°C 71.7°F22.1°C 99% 2.3 mph NNE3.7 kmh NNE 2.3 mph3.7 kmh 29.77 in1008.1 mb - 0.00 in0.0 mm 0.01 in0.3 mm
09:45 PM 71.8°F22.1°C 71.5°F21.9°C 99% 3.5 mph N5.6 kmh N 3.5 mph5.6 kmh 29.77 in1008.1 mb - 0.00 in0.0 mm 0.01 in0.3 mm
09:50 PM 71.6°F22.0°C 71.3°F21.8°C 99% 2.3 mph N3.7 kmh N 2.3 mph3.7 kmh 29.84 in1010.5 mb - 0.00 in0.0 mm 0.01 in0.3 mm
09:55 PM 71.6°F22.0°C 71.3°F21.8°C 99% 2.3 mph N3.7 kmh N 2.3 mph3.7 kmh 29.85 in1010.8 mb - 0.00 in0.0 mm 0.01 in0.3 mm
10:00 PM 71.4°F21.9°C 71.1°F21.7°C 99% 2.3 mph N3.7 kmh N 3.5 mph5.6 kmh 29.85 in1010.8 mb - 0.00 in0.0 mm 0.01 in0.3 mm
10:10 PM 71.3°F21.8°C 71.0°F21.7°C 99% 2.3 mph WNW3.7 kmh WNW 2.3 mph3.7 kmh 29.92 in1013.2 mb - 0.00 in0.0 mm 0.01 in0.3 mm
10:15 PM 71.3°F21.8°C 71.0°F21.7°C 99% 2.3 mph NW3.7 kmh NW 2.3 mph3.7 kmh 29.98 in1015.2 mb - 0.00 in0.0 mm 0.01 in0.3 mm
10:20 PM 71.3°F21.8°C 71.0°F21.7°C 99% 2.3 mph NNW3.7 kmh NNW 2.3 mph3.7 kmh 29.98 in1015.2 mb - 0.00 in0.0 mm 0.01 in0.3 mm
10:25 PM 71.3°F21.8°C 71.0°F21.7°C 99% 3.5 mph N5.6 kmh N 4.6 mph7.4 kmh 29.99 in1015.6 mb - 0.00 in0.0 mm 0.01 in0.3 mm
10:30 PM 71.1°F21.7°C 70.8°F21.6°C 99% 2.3 mph N3.7 kmh N 2.3 mph3.7 kmh 30.03 in1016.9 mb - 0.00 in0.0 mm 0.01 in0.3 mm
10:35 PM 70.9°F21.6°C 70.6°F21.4°C 99% 2.3 mph N3.7 kmh N 2.3 mph3.7 kmh 30.03 in1016.9 mb - 0.00 in0.0 mm 0.01 in0.3 mm
10:40 PM 70.9°F21.6°C 70.6°F21.4°C 99% 3.5 mph NNE5.6 kmh NNE 3.5 mph5.6 kmh 30.10 in1019.3 mb - 0.00 in0.0 mm 0.01 in0.3 mm
10:45 PM 70.9°F21.6°C 70.6°F21.4°C 99% 3.5 mph N5.6 kmh N 3.5 mph5.6 kmh 30.10 in1019.3 mb - 0.00 in0.0 mm 0.01 in0.3 mm
10:50 PM 70.9°F21.6°C 70.6°F21.4°C 99% 3.5 mph NNE5.6 kmh NNE 3.5 mph5.6 kmh 30.17 in1021.7 mb - 0.00 in0.0 mm 0.01 in0.3 mm
10:55 PM 70.9°F21.6°C 70.6°F21.4°C 99% 3.5 mph NNE5.6 kmh NNE 4.6 mph7.4 kmh 30.20 in1022.7 mb - 0.00 in0.0 mm 0.01 in0.3 mm
11:00 PM 70.7°F21.5°C 70.4°F21.3°C 99% 3.5 mph N5.6 kmh N 3.5 mph5.6 kmh 30.20 in1022.7 mb - 0.00 in0.0 mm 0.11 in2.8 mm
11:10 PM 70.4°F21.3°C 70.1°F21.2°C 99% 3.5 mph N5.6 kmh N 3.5 mph5.6 kmh 30.27 in1025.1 mb - 0.00 in0.0 mm 0.11 in2.8 mm
11:15 PM 70.2°F21.2°C 69.9°F21.1°C 99% 3.5 mph N5.6 kmh N 3.5 mph5.6 kmh 30.37 in1028.4 mb - 0.00 in0.0 mm 0.11 in2.8 mm
11:20 PM 70.0°F21.1°C 69.7°F20.9°C 99% 2.3 mph N3.7 kmh N 2.3 mph3.7 kmh 30.37 in1028.4 mb - 0.00 in0.0 mm 0.11 in2.8 mm
11:25 PM 69.8°F21.0°C 69.5°F20.8°C 99% 2.3 mph N3.7 kmh N 3.5 mph5.6 kmh 30.37 in1028.4 mb - 0.00 in0.0 mm 0.11 in2.8 mm
11:30 PM 69.8°F21.0°C 69.5°F20.8°C 99% 3.5 mph N5.6 kmh N 3.5 mph5.6 kmh 30.45 in1031.2 mb - 0.00 in0.0 mm 0.11 in2.8 mm
11:35 PM 69.6°F20.9°C 69.3°F20.7°C 99% 3.5 mph N5.6 kmh N 3.5 mph5.6 kmh 30.45 in1031.2 mb - 0.00 in0.0 mm 0.11 in2.8 mm
11:40 PM 69.5°F20.8°C 69.2°F20.7°C 99% 2.3 mph N3.7 kmh N 2.3 mph3.7 kmh 30.52 in1033.5 mb - 0.00 in0.0 mm 0.11 in2.8 mm
11:45 PM 69.3°F20.7°C 69.0°F20.6°C 99% 2.3 mph N3.7 kmh N 3.5 mph5.6 kmh 30.52 in1033.5 mb - 0.00 in0.0 mm 0.11 in2.8 mm
11:50 PM 69.2°F20.7°C 68.9°F20.5°C 99% 3.5 mph N5.6 kmh N 3.5 mph5.6 kmh 30.54 in1034.2 mb - 0.00 in0.0 mm 0.11 in2.8 mm
11:55 PM 69.1°F20.6°C 68.8°F20.4°C 99% 3.5 mph N5.6 kmh N 5.8 mph9.3 kmh 30.56 in1034.9 mb - 0.00 in0.0 mm 0.11 in2.8 mm